Date,TemperatureHighF,TemperatureAvgF,TemperatureLowF,DewpointHighF,DewpointAvgF,DewpointLowF,HumidityHigh,HumidityAvg,HumidityLow,PressureMaxIn,PressureMinIn,WindSpeedMaxMPH,WindSpeedAvgMPH,GustSpeedMaxMPH,PrecipitationSumIn
2013-1-1,34.0,21.4,1.0,28.0,15.5,-2.0,92,77,62,29.97,29.77,13,6,21,0.00
2013-1-2,25.0,16.0,1.0,19.0,9.8,-2.0,92,76,56,30.17,29.91,14,5,20,0.00
2013-1-3,30.0,14.4,-6.0,25.0,8.9,-11.0,92,79,66,30.17,29.92,8,3,0,0.00
2013-1-4,36.0,30.3,18.0,25.0,20.7,16.0,92,68,51,29.94,29.84,14,6,29,0.00
2013-1-5,34.0,31.4,27.0,27.0,22.7,19.0,86,70,55,30.24,29.93,15,6,29,0.00
2013-1-6,37.0,33.6,28.0,30.0,26.4,21.0,86,74,64,30.10,29.87,10,6,17,0.00
2013-1-7,36.0,27.6,19.0,32.0,22.0,16.0,93,80,68,30.34,29.99,13,7,20,0.00
2013-1-8,39.0,28.5,18.0,25.0,21.1,16.0,92,75,48,30.33,30.20,15,4,18,0.00
2013-1-9,46.0,30.4,10.0,32.0,21.4,9.0,100,72,39,30.32,29.97,20,7,39,0.00
2013-1-10,39.0,33.4,21.0,27.0,24.3,19.0,100,69,55,30.53,30.21,21,7,35,0.00
2013-1-11,39.0,34.2,19.0,37.0,27.7,19.0,100,77,51,30.49,30.02,21,11,30,0.00
2013-1-12,45.0,40.9,37.0,43.0,38.7,36.0,100,92,81,30.09,30.03,10,7,0,0.00
2013-1-13,54.0,48.1,41.0,50.0,45.3,39.0,100,90,81,30.08,29.87,17,9,24,0.00
2013-1-14,52.0,41.5,34.0,48.0,35.5,21.0,93,80,59,30.30,29.82,14,8,22,0.00
2013-1-15,32.0,30.3,28.0,25.0,23.3,19.0,86,74,59,30.34,30.17,6,2,0,0.00
2013-1-16,34.0,30.1,25.0,28.0,26.5,21.0,92,86,68,30.17,29.78,9,4,0,0.00
2013-1-17,36.0,27.0,18.0,28.0,18.5,9.0,86,70,49,30.12,29.82,16,6,22,0.00
2013-1-18,27.0,16.8,3.0,14.0,7.2,1.0,91,66,45,30.35,30.06,16,5,21,0.00
2013-1-19,46.0,38.1,27.0,25.0,17.0,10.0,52,42,35,30.13,29.69,14,9,27,0.00
2013-1-20,46.0,34.1,21.0,34.0,18.0,7.0,80,52,39,29.99,29.47,22,12,36,0.00
2013-1-21,25.0,19.9,14.0,19.0,12.4,7.0,92,72,53,29.99,29.78,12,4,16,0.00
2013-1-22,16.0,11.4,7.0,3.0,-2.7,-9.0,78,53,39,30.07,29.90,18,11,29,0.00
2013-1-23,10.0,2.8,-8.0,1.0,-4.0,-13.0,91,73,51,30.14,30.05,12,3,20,0.00
2013-1-24,12.0,2.5,-9.0,5.0,-4.1,-13.0,84,73,55,30.36,30.06,14,5,23,0.00
2013-1-25,18.0,11.3,5.0,10.0,3.8,0.0,92,72,44,30.36,30.01,9,3,17,0.00
2013-1-26,18.0,8.5,-2.0,9.0,2.9,-6.0,92,78,56,30.30,30.01,12,2,17,0.00
2013-1-27,25.0,15.4,7.0,12.0,6.7,0.0,92,70,32,30.48,30.30,9,2,0,0.00
2013-1-28,37.0,28.4,10.0,36.0,23.2,7.0,100,81,58,30.41,29.89,15,7,22,0.00
2013-1-29,48.0,41.0,36.0,46.0,38.6,34.0,100,91,75,30.06,29.90,14,6,20,0.00
2013-1-30,59.0,52.9,46.0,55.0,49.9,45.0,93,88,81,29.90,29.18,18,13,29,0.00
2013-1-31,54.0,30.3,21.0,52.0,21.9,16.0,93,72,50,29.62,29.15,21,12,44,0.00